sensor_id;sensor_type;location;lat;lon;timestamp;P1;durP1;ratioP1;P2;durP2;ratioP2
58338;SDS011;68636;52.704;6.536;2023-03-16T00:00:12;12.18;;;2.78;;
58338;SDS011;68636;52.704;6.536;2023-03-16T00:02:41;11.48;;;2.75;;
58338;SDS011;68636;52.704;6.536;2023-03-16T00:05:11;9.60;;;3.10;;
58338;SDS011;68636;52.704;6.536;2023-03-16T00:07:38;10.88;;;3.45;;
58338;SDS011;68636;52.704;6.536;2023-03-16T00:10:06;10.90;;;3.15;;
58338;SDS011;68636;52.704;6.536;2023-03-16T00:12:32;8.98;;;3.13;;
58338;SDS011;68636;52.704;6.536;2023-03-16T00:14:58;9.57;;;2.90;;
58338;SDS011;68636;52.704;6.536;2023-03-16T00:17:25;9.18;;;3.30;;
58338;SDS011;68636;52.704;6.536;2023-03-16T00:19:51;8.50;;;3.00;;
58338;SDS011;68636;52.704;6.536;2023-03-16T00:22:24;11.88;;;3.45;;
58338;SDS011;68636;52.704;6.536;2023-03-16T00:24:52;8.40;;;3.00;;
58338;SDS011;68636;52.704;6.536;2023-03-16T00:27:19;10.63;;;3.00;;
58338;SDS011;68636;52.704;6.536;2023-03-16T00:29:47;12.82;;;3.20;;
58338;SDS011;68636;52.704;6.536;2023-03-16T00:32:17;8.38;;;3.10;;
58338;SDS011;68636;52.704;6.536;2023-03-16T00:34:45;8.10;;;3.10;;
58338;SDS011;68636;52.704;6.536;2023-03-16T00:37:11;11.97;;;3.67;;
58338;SDS011;68636;52.704;6.536;2023-03-16T00:39:43;12.18;;;3.53;;
58338;SDS011;68636;52.704;6.536;2023-03-16T00:42:10;10.23;;;3.63;;
58338;SDS011;68636;52.704;6.536;2023-03-16T00:44:38;9.60;;;3.03;;
58338;SDS011;68636;52.704;6.536;2023-03-16T00:47:06;9.43;;;3.20;;
58338;SDS011;68636;52.704;6.536;2023-03-16T00:49:33;12.15;;;3.85;;
58338;SDS011;68636;52.704;6.536;2023-03-16T00:52:00;10.25;;;3.63;;
58338;SDS011;68636;52.704;6.536;2023-03-16T00:54:27;13.15;;;4.20;;
58338;SDS011;68636;52.704;6.536;2023-03-16T00:56:53;10.65;;;3.38;;
58338;SDS011;68636;52.704;6.536;2023-03-16T00:59:19;14.80;;;3.42;;
58338;SDS011;68636;52.704;6.536;2023-03-16T01:01:45;10.63;;;3.45;;
58338;SDS011;68636;52.704;6.536;2023-03-16T01:04:12;9.48;;;3.40;;
58338;SDS011;68636;52.704;6.536;2023-03-16T01:06:38;14.07;;;3.80;;
58338;SDS011;68636;52.704;6.536;2023-03-16T01:09:05;13.07;;;3.47;;
58338;SDS011;68636;52.704;6.536;2023-03-16T01:11:31;10.43;;;3.28;;
58338;SDS011;68636;52.704;6.536;2023-03-16T01:13:59;13.48;;;3.70;;
58338;SDS011;68636;52.704;6.536;2023-03-16T01:16:25;10.85;;;3.47;;
58338;SDS011;68636;52.704;6.536;2023-03-16T01:18:52;13.02;;;3.63;;
58338;SDS011;68636;52.704;6.536;2023-03-16T01:21:18;14.27;;;3.70;;
58338;SDS011;68636;52.704;6.536;2023-03-16T01:26:11;10.32;;;3.78;;
58338;SDS011;68636;52.704;6.536;2023-03-16T01:28:39;13.32;;;4.38;;
58338;SDS011;68636;52.704;6.536;2023-03-16T01:31:09;13.65;;;4.43;;
58338;SDS011;68636;52.704;6.536;2023-03-16T01:33:37;13.45;;;4.30;;
58338;SDS011;68636;52.704;6.536;2023-03-16T01:36:04;14.40;;;4.77;;
58338;SDS011;68636;52.704;6.536;2023-03-16T01:38:30;12.32;;;4.38;;
58338;SDS011;68636;52.704;6.536;2023-03-16T01:40:57;13.75;;;4.22;;
58338;SDS011;68636;52.704;6.536;2023-03-16T01:43:25;14.98;;;4.75;;
58338;SDS011;68636;52.704;6.536;2023-03-16T01:48:37;12.60;;;4.00;;
58338;SDS011;68636;52.704;6.536;2023-03-16T01:51:20;9.68;;;3.88;;
58338;SDS011;68636;52.704;6.536;2023-03-16T01:54:24;11.80;;;4.28;;
58338;SDS011;68636;52.704;6.536;2023-03-16T01:56:52;12.77;;;4.00;;
58338;SDS011;68636;52.704;6.536;2023-03-16T01:59:44;13.73;;;4.10;;
58338;SDS011;68636;52.704;6.536;2023-03-16T02:02:15;17.83;;;4.45;;
58338;SDS011;68636;52.704;6.536;2023-03-16T02:07:26;12.65;;;4.53;;
58338;SDS011;68636;52.704;6.536;2023-03-16T02:09:56;17.90;;;4.32;;
58338;SDS011;68636;52.704;6.536;2023-03-16T02:12:25;15.80;;;4.47;;
58338;SDS011;68636;52.704;6.536;2023-03-16T02:14:51;11.93;;;4.57;;
58338;SDS011;68636;52.704;6.536;2023-03-16T02:17:18;9.93;;;3.85;;
58338;SDS011;68636;52.704;6.536;2023-03-16T02:22:35;13.73;;;4.07;;
58338;SDS011;68636;52.704;6.536;2023-03-16T02:25:03;8.68;;;3.72;;
58338;SDS011;68636;52.704;6.536;2023-03-16T02:27:39;11.82;;;4.10;;
58338;SDS011;68636;52.704;6.536;2023-03-16T02:32:43;11.20;;;3.80;;
58338;SDS011;68636;52.704;6.536;2023-03-16T02:35:11;11.25;;;3.55;;
58338;SDS011;68636;52.704;6.536;2023-03-16T02:37:38;13.82;;;4.05;;
58338;SDS011;68636;52.704;6.536;2023-03-16T02:40:23;10.63;;;3.63;;
58338;SDS011;68636;52.704;6.536;2023-03-16T02:42:55;19.10;;;4.20;;
58338;SDS011;68636;52.704;6.536;2023-03-16T02:45:50;12.55;;;4.07;;
58338;SDS011;68636;52.704;6.536;2023-03-16T02:48:32;11.80;;;3.13;;
58338;SDS011;68636;52.704;6.536;2023-03-16T02:51:06;12.73;;;4.40;;
58338;SDS011;68636;52.704;6.536;2023-03-16T02:53:32;13.57;;;4.18;;
58338;SDS011;68636;52.704;6.536;2023-03-16T02:55:58;12.90;;;3.75;;
58338;SDS011;68636;52.704;6.536;2023-03-16T02:58:24;9.25;;;3.78;;
58338;SDS011;68636;52.704;6.536;2023-03-16T03:00:49;13.27;;;3.63;;
58338;SDS011;68636;52.704;6.536;2023-03-16T03:03:15;8.85;;;3.65;;
58338;SDS011;68636;52.704;6.536;2023-03-16T03:05:41;12.30;;;4.22;;
58338;SDS011;68636;52.704;6.536;2023-03-16T03:08:06;15.13;;;3.97;;
58338;SDS011;68636;52.704;6.536;2023-03-16T03:10:32;12.82;;;3.58;;
58338;SDS011;68636;52.704;6.536;2023-03-16T03:12:58;9.68;;;3.80;;
58338;SDS011;68636;52.704;6.536;2023-03-16T03:15:24;11.27;;;3.65;;
58338;SDS011;68636;52.704;6.536;2023-03-16T03:17:49;13.00;;;3.85;;
58338;SDS011;68636;52.704;6.536;2023-03-16T03:20:15;10.57;;;3.38;;
58338;SDS011;68636;52.704;6.536;2023-03-16T03:22:45;10.25;;;3.28;;
58338;SDS011;68636;52.704;6.536;2023-03-16T03:25:14;12.75;;;3.63;;
58338;SDS011;68636;52.704;6.536;2023-03-16T03:27:41;7.75;;;3.58;;
58338;SDS011;68636;52.704;6.536;2023-03-16T03:30:09;11.55;;;3.13;;
58338;SDS011;68636;52.704;6.536;2023-03-16T03:32:37;12.50;;;3.35;;
58338;SDS011;68636;52.704;6.536;2023-03-16T03:35:03;9.13;;;2.97;;
58338;SDS011;68636;52.704;6.536;2023-03-16T03:37:29;9.83;;;3.40;;
58338;SDS011;68636;52.704;6.536;2023-03-16T03:39:55;12.15;;;3.63;;
58338;SDS011;68636;52.704;6.536;2023-03-16T03:42:21;10.73;;;3.42;;
58338;SDS011;68636;52.704;6.536;2023-03-16T03:44:50;7.78;;;3.65;;
58338;SDS011;68636;52.704;6.536;2023-03-16T03:47:16;13.57;;;3.40;;
58338;SDS011;68636;52.704;6.536;2023-03-16T03:49:43;10.77;;;3.25;;
58338;SDS011;68636;52.704;6.536;2023-03-16T03:52:08;8.02;;;3.00;;
58338;SDS011;68636;52.704;6.536;2023-03-16T03:54:35;10.07;;;3.30;;
58338;SDS011;68636;52.704;6.536;2023-03-16T03:57:00;8.30;;;3.08;;
58338;SDS011;68636;52.704;6.536;2023-03-16T03:59:27;11.60;;;3.27;;
58338;SDS011;68636;52.704;6.536;2023-03-16T04:01:53;9.68;;;3.78;;
58338;SDS011;68636;52.704;6.536;2023-03-16T04:04:19;12.05;;;3.53;;
58338;SDS011;68636;52.704;6.536;2023-03-16T04:06:44;11.32;;;3.05;;
58338;SDS011;68636;52.704;6.536;2023-03-16T04:09:11;12.60;;;3.08;;
58338;SDS011;68636;52.704;6.536;2023-03-16T04:11:37;9.07;;;3.05;;
58338;SDS011;68636;52.704;6.536;2023-03-16T04:14:03;10.27;;;3.00;;
58338;SDS011;68636;52.704;6.536;2023-03-16T04:16:29;8.05;;;3.25;;
58338;SDS011;68636;52.704;6.536;2023-03-16T04:18:55;9.95;;;3.00;;
58338;SDS011;68636;52.704;6.536;2023-03-16T04:21:21;10.88;;;3.33;;
58338;SDS011;68636;52.704;6.536;2023-03-16T04:23:48;9.40;;;3.70;;
58338;SDS011;68636;52.704;6.536;2023-03-16T04:26:14;9.48;;;3.30;;
58338;SDS011;68636;52.704;6.536;2023-03-16T04:28:40;9.40;;;3.50;;
58338;SDS011;68636;52.704;6.536;2023-03-16T04:31:08;7.82;;;3.25;;
58338;SDS011;68636;52.704;6.536;2023-03-16T04:36:01;12.43;;;3.83;;
58338;SDS011;68636;52.704;6.536;2023-03-16T04:38:28;11.85;;;3.45;;
58338;SDS011;68636;52.704;6.536;2023-03-16T04:40:54;14.15;;;3.67;;
58338;SDS011;68636;52.704;6.536;2023-03-16T04:43:20;10.65;;;3.53;;
58338;SDS011;68636;52.704;6.536;2023-03-16T04:45:47;12.60;;;3.67;;
58338;SDS011;68636;52.704;6.536;2023-03-16T04:48:12;11.13;;;4.07;;
58338;SDS011;68636;52.704;6.536;2023-03-16T04:50:38;9.95;;;3.47;;
58338;SDS011;68636;52.704;6.536;2023-03-16T04:53:04;9.68;;;3.70;;
58338;SDS011;68636;52.704;6.536;2023-03-16T04:55:30;12.63;;;3.70;;
58338;SDS011;68636;52.704;6.536;2023-03-16T04:57:56;7.60;;;2.72;;
58338;SDS011;68636;52.704;6.536;2023-03-16T05:00:23;10.93;;;4.20;;
58338;SDS011;68636;52.704;6.536;2023-03-16T05:02:49;11.73;;;4.05;;
58338;SDS011;68636;52.704;6.536;2023-03-16T05:05:18;9.45;;;3.92;;
58338;SDS011;68636;52.704;6.536;2023-03-16T05:07:45;10.40;;;3.90;;
58338;SDS011;68636;52.704;6.536;2023-03-16T05:10:12;10.40;;;4.43;;
58338;SDS011;68636;52.704;6.536;2023-03-16T05:12:39;11.18;;;3.83;;
58338;SDS011;68636;52.704;6.536;2023-03-16T05:15:05;12.43;;;3.53;;
58338;SDS011;68636;52.704;6.536;2023-03-16T05:17:32;12.35;;;3.45;;
58338;SDS011;68636;52.704;6.536;2023-03-16T05:19:58;12.63;;;3.67;;
58338;SDS011;68636;52.704;6.536;2023-03-16T05:22:24;14.68;;;3.92;;
58338;SDS011;68636;52.704;6.536;2023-03-16T05:24:50;15.65;;;4.22;;
58338;SDS011;68636;52.704;6.536;2023-03-16T05:27:16;13.07;;;3.97;;
58338;SDS011;68636;52.704;6.536;2023-03-16T05:29:41;9.90;;;3.85;;
58338;SDS011;68636;52.704;6.536;2023-03-16T05:32:13;11.38;;;3.53;;
58338;SDS011;68636;52.704;6.536;2023-03-16T05:34:41;10.73;;;4.13;;
58338;SDS011;68636;52.704;6.536;2023-03-16T05:37:07;11.77;;;4.23;;
58338;SDS011;68636;52.704;6.536;2023-03-16T05:39:34;11.03;;;4.07;;
58338;SDS011;68636;52.704;6.536;2023-03-16T05:41:59;12.00;;;3.75;;
58338;SDS011;68636;52.704;6.536;2023-03-16T05:44:25;10.90;;;3.55;;
58338;SDS011;68636;52.704;6.536;2023-03-16T05:46:51;13.48;;;4.20;;
58338;SDS011;68636;52.704;6.536;2023-03-16T05:49:16;9.52;;;3.80;;
58338;SDS011;68636;52.704;6.536;2023-03-16T05:51:42;11.13;;;3.58;;
58338;SDS011;68636;52.704;6.536;2023-03-16T05:54:08;10.25;;;3.55;;
58338;SDS011;68636;52.704;6.536;2023-03-16T05:56:34;10.68;;;3.72;;
58338;SDS011;68636;52.704;6.536;2023-03-16T05:58:59;12.20;;;4.35;;
58338;SDS011;68636;52.704;6.536;2023-03-16T06:01:25;12.20;;;3.67;;
58338;SDS011;68636;52.704;6.536;2023-03-16T06:03:51;15.93;;;4.43;;
58338;SDS011;68636;52.704;6.536;2023-03-16T06:06:18;10.02;;;4.00;;
58338;SDS011;68636;52.704;6.536;2023-03-16T06:08:45;10.65;;;3.28;;
58338;SDS011;68636;52.704;6.536;2023-03-16T06:11:11;10.25;;;3.60;;
58338;SDS011;68636;52.704;6.536;2023-03-16T06:13:37;12.45;;;4.10;;
58338;SDS011;68636;52.704;6.536;2023-03-16T06:16:03;12.77;;;4.78;;
58338;SDS011;68636;52.704;6.536;2023-03-16T06:18:30;11.15;;;3.95;;
58338;SDS011;68636;52.704;6.536;2023-03-16T06:20:57;8.90;;;3.50;;
58338;SDS011;68636;52.704;6.536;2023-03-16T06:23:23;13.25;;;3.80;;
58338;SDS011;68636;52.704;6.536;2023-03-16T06:25:49;9.02;;;2.75;;
58338;SDS011;68636;52.704;6.536;2023-03-16T06:28:15;12.30;;;4.00;;
58338;SDS011;68636;52.704;6.536;2023-03-16T06:30:41;12.35;;;3.70;;
58338;SDS011;68636;52.704;6.536;2023-03-16T06:33:07;10.57;;;4.00;;
58338;SDS011;68636;52.704;6.536;2023-03-16T06:35:33;13.63;;;3.90;;
58338;SDS011;68636;52.704;6.536;2023-03-16T06:37:59;11.32;;;4.03;;
58338;SDS011;68636;52.704;6.536;2023-03-16T06:40:25;10.15;;;3.92;;
58338;SDS011;68636;52.704;6.536;2023-03-16T06:42:50;13.65;;;3.97;;
58338;SDS011;68636;52.704;6.536;2023-03-16T06:45:16;12.85;;;3.65;;
58338;SDS011;68636;52.704;6.536;2023-03-16T06:47:45;12.90;;;4.25;;
58338;SDS011;68636;52.704;6.536;2023-03-16T06:50:11;10.70;;;3.63;;
58338;SDS011;68636;52.704;6.536;2023-03-16T06:52:37;9.32;;;3.42;;
58338;SDS011;68636;52.704;6.536;2023-03-16T06:55:03;9.73;;;3.65;;
58338;SDS011;68636;52.704;6.536;2023-03-16T06:57:29;11.65;;;4.03;;
58338;SDS011;68636;52.704;6.536;2023-03-16T06:59:55;10.18;;;3.75;;
58338;SDS011;68636;52.704;6.536;2023-03-16T07:02:21;12.88;;;3.85;;
58338;SDS011;68636;52.704;6.536;2023-03-16T07:04:48;10.45;;;4.30;;
58338;SDS011;68636;52.704;6.536;2023-03-16T07:07:14;12.80;;;3.75;;
58338;SDS011;68636;52.704;6.536;2023-03-16T07:09:41;12.48;;;3.90;;
58338;SDS011;68636;52.704;6.536;2023-03-16T07:12:07;14.10;;;3.95;;
58338;SDS011;68636;52.704;6.536;2023-03-16T07:14:34;9.88;;;3.67;;
58338;SDS011;68636;52.704;6.536;2023-03-16T07:17:00;12.40;;;4.20;;
58338;SDS011;68636;52.704;6.536;2023-03-16T07:19:26;11.40;;;4.07;;
58338;SDS011;68636;52.704;6.536;2023-03-16T07:21:52;11.60;;;3.20;;
58338;SDS011;68636;52.704;6.536;2023-03-16T07:24:18;12.27;;;3.70;;
58338;SDS011;68636;52.704;6.536;2023-03-16T07:26:44;10.88;;;3.67;;
58338;SDS011;68636;52.704;6.536;2023-03-16T07:29:10;16.15;;;3.95;;
58338;SDS011;68636;52.704;6.536;2023-03-16T07:34:03;11.85;;;3.17;;
58338;SDS011;68636;52.704;6.536;2023-03-16T07:36:29;10.88;;;4.10;;
58338;SDS011;68636;52.704;6.536;2023-03-16T07:38:55;11.70;;;3.90;;
58338;SDS011;68636;52.704;6.536;2023-03-16T07:41:21;12.68;;;3.92;;
58338;SDS011;68636;52.704;6.536;2023-03-16T07:43:47;11.55;;;3.90;;
58338;SDS011;68636;52.704;6.536;2023-03-16T07:46:12;11.38;;;3.80;;
58338;SDS011;68636;52.704;6.536;2023-03-16T07:48:39;12.32;;;4.05;;
58338;SDS011;68636;52.704;6.536;2023-03-16T07:51:07;16.27;;;4.47;;
58338;SDS011;68636;52.704;6.536;2023-03-16T07:53:33;8.25;;;3.50;;
58338;SDS011;68636;52.704;6.536;2023-03-16T07:55:59;12.32;;;3.95;;
58338;SDS011;68636;52.704;6.536;2023-03-16T07:58:25;10.77;;;4.03;;
58338;SDS011;68636;52.704;6.536;2023-03-16T08:00:54;15.00;;;4.40;;
58338;SDS011;68636;52.704;6.536;2023-03-16T08:03:27;10.10;;;3.95;;
58338;SDS011;68636;52.704;6.536;2023-03-16T08:05:54;9.98;;;3.67;;
58338;SDS011;68636;52.704;6.536;2023-03-16T08:08:20;12.88;;;4.57;;
58338;SDS011;68636;52.704;6.536;2023-03-16T08:10:47;16.48;;;5.43;;
58338;SDS011;68636;52.704;6.536;2023-03-16T08:13:13;15.45;;;4.75;;
58338;SDS011;68636;52.704;6.536;2023-03-16T08:15:39;13.10;;;4.55;;
58338;SDS011;68636;52.704;6.536;2023-03-16T08:18:06;13.55;;;4.95;;
58338;SDS011;68636;52.704;6.536;2023-03-16T08:20:32;12.75;;;4.72;;
58338;SDS011;68636;52.704;6.536;2023-03-16T08:22:58;13.63;;;4.50;;
58338;SDS011;68636;52.704;6.536;2023-03-16T08:25:24;11.20;;;4.40;;
58338;SDS011;68636;52.704;6.536;2023-03-16T08:27:50;16.93;;;4.77;;
58338;SDS011;68636;52.704;6.536;2023-03-16T08:30:17;15.77;;;4.57;;
58338;SDS011;68636;52.704;6.536;2023-03-16T08:32:43;17.90;;;5.68;;
58338;SDS011;68636;52.704;6.536;2023-03-16T08:35:10;16.02;;;3.92;;
58338;SDS011;68636;52.704;6.536;2023-03-16T08:37:41;11.93;;;5.10;;
58338;SDS011;68636;52.704;6.536;2023-03-16T08:40:07;14.30;;;4.55;;
58338;SDS011;68636;52.704;6.536;2023-03-16T08:42:44;15.82;;;4.22;;
58338;SDS011;68636;52.704;6.536;2023-03-16T08:45:10;18.98;;;5.30;;
58338;SDS011;68636;52.704;6.536;2023-03-16T08:47:37;13.03;;;4.47;;
58338;SDS011;68636;52.704;6.536;2023-03-16T08:50:07;14.70;;;4.40;;
58338;SDS011;68636;52.704;6.536;2023-03-16T08:55:00;15.02;;;4.60;;
58338;SDS011;68636;52.704;6.536;2023-03-16T08:57:30;21.60;;;5.03;;
58338;SDS011;68636;52.704;6.536;2023-03-16T08:59:57;16.77;;;5.20;;
58338;SDS011;68636;52.704;6.536;2023-03-16T09:02:23;20.30;;;5.55;;
58338;SDS011;68636;52.704;6.536;2023-03-16T09:04:49;13.88;;;5.45;;
58338;SDS011;68636;52.704;6.536;2023-03-16T09:07:16;23.48;;;6.03;;
58338;SDS011;68636;52.704;6.536;2023-03-16T09:09:43;15.48;;;4.15;;
58338;SDS011;68636;52.704;6.536;2023-03-16T09:12:09;14.07;;;4.80;;
58338;SDS011;68636;52.704;6.536;2023-03-16T09:14:37;17.48;;;5.95;;
58338;SDS011;68636;52.704;6.536;2023-03-16T09:17:04;17.13;;;6.40;;
58338;SDS011;68636;52.704;6.536;2023-03-16T09:19:32;22.35;;;6.00;;
58338;SDS011;68636;52.704;6.536;2023-03-16T09:21:58;15.25;;;4.75;;
58338;SDS011;68636;52.704;6.536;2023-03-16T09:24:24;17.23;;;6.35;;
58338;SDS011;68636;52.704;6.536;2023-03-16T09:26:50;17.30;;;6.00;;
58338;SDS011;68636;52.704;6.536;2023-03-16T09:29:16;16.63;;;5.15;;
58338;SDS011;68636;52.704;6.536;2023-03-16T09:31:43;22.38;;;7.10;;
58338;SDS011;68636;52.704;6.536;2023-03-16T09:34:09;17.38;;;5.85;;
58338;SDS011;68636;52.704;6.536;2023-03-16T09:36:36;21.73;;;6.80;;
58338;SDS011;68636;52.704;6.536;2023-03-16T09:39:01;20.20;;;6.10;;
58338;SDS011;68636;52.704;6.536;2023-03-16T09:41:40;20.15;;;6.35;;
58338;SDS011;68636;52.704;6.536;2023-03-16T09:46:46;22.70;;;6.53;;
58338;SDS011;68636;52.704;6.536;2023-03-16T09:49:16;21.00;;;6.65;;
58338;SDS011;68636;52.704;6.536;2023-03-16T09:51:59;20.98;;;6.80;;
58338;SDS011;68636;52.704;6.536;2023-03-16T09:55:11;17.02;;;4.82;;
58338;SDS011;68636;52.704;6.536;2023-03-16T09:57:57;25.88;;;7.50;;
58338;SDS011;68636;52.704;6.536;2023-03-16T10:00:26;22.75;;;7.30;;
58338;SDS011;68636;52.704;6.536;2023-03-16T10:03:08;20.33;;;6.22;;
58338;SDS011;68636;52.704;6.536;2023-03-16T10:06:00;22.38;;;5.72;;
58338;SDS011;68636;52.704;6.536;2023-03-16T10:08:30;28.92;;;6.18;;
58338;SDS011;68636;52.704;6.536;2023-03-16T10:17:04;24.95;;;6.93;;
58338;SDS011;68636;52.704;6.536;2023-03-16T10:19:37;20.35;;;5.57;;
58338;SDS011;68636;52.704;6.536;2023-03-16T10:22:20;23.25;;;6.05;;
58338;SDS011;68636;52.704;6.536;2023-03-16T10:27:41;28.98;;;8.52;;
58338;SDS011;68636;52.704;6.536;2023-03-16T10:32:48;20.15;;;6.82;;
58338;SDS011;68636;52.704;6.536;2023-03-16T10:38:25;18.75;;;5.45;;
58338;SDS011;68636;52.704;6.536;2023-03-16T10:40:54;19.40;;;5.28;;
58338;SDS011;68636;52.704;6.536;2023-03-16T10:43:22;23.38;;;7.05;;
58338;SDS011;68636;52.704;6.536;2023-03-16T10:50:43;24.90;;;6.18;;
58338;SDS011;68636;52.704;6.536;2023-03-16T10:53:30;22.30;;;5.60;;
58338;SDS011;68636;52.704;6.536;2023-03-16T10:56:07;24.30;;;6.82;;
58338;SDS011;68636;52.704;6.536;2023-03-16T10:58:42;20.73;;;5.45;;
58338;SDS011;68636;52.704;6.536;2023-03-16T11:03:42;26.45;;;5.53;;
58338;SDS011;68636;52.704;6.536;2023-03-16T11:06:17;17.92;;;5.57;;
58338;SDS011;68636;52.704;6.536;2023-03-16T11:08:46;25.17;;;5.72;;
58338;SDS011;68636;52.704;6.536;2023-03-16T11:11:13;19.25;;;5.70;;
58338;SDS011;68636;52.704;6.536;2023-03-16T11:13:47;22.17;;;6.00;;
58338;SDS011;68636;52.704;6.536;2023-03-16T11:16:16;18.75;;;5.93;;
58338;SDS011;68636;52.704;6.536;2023-03-16T11:18:53;28.30;;;7.32;;
58338;SDS011;68636;52.704;6.536;2023-03-16T11:21:42;23.45;;;6.63;;
58338;SDS011;68636;52.704;6.536;2023-03-16T11:24:21;23.35;;;5.88;;
58338;SDS011;68636;52.704;6.536;2023-03-16T11:30:00;30.40;;;6.45;;
58338;SDS011;68636;52.704;6.536;2023-03-16T11:32:48;26.50;;;7.38;;
58338;SDS011;68636;52.704;6.536;2023-03-16T11:35:18;22.50;;;6.32;;
58338;SDS011;68636;52.704;6.536;2023-03-16T11:40:34;25.55;;;7.50;;
58338;SDS011;68636;52.704;6.536;2023-03-16T11:43:25;21.83;;;7.13;;
58338;SDS011;68636;52.704;6.536;2023-03-16T11:53:55;19.52;;;5.45;;
58338;SDS011;68636;52.704;6.536;2023-03-16T11:56:52;23.77;;;5.95;;
58338;SDS011;68636;52.704;6.536;2023-03-16T12:11:02;24.65;;;6.80;;
58338;SDS011;68636;52.704;6.536;2023-03-16T12:16:17;19.08;;;4.57;;
58338;SDS011;68636;52.704;6.536;2023-03-16T12:24:04;19.98;;;5.85;;
58338;SDS011;68636;52.704;6.536;2023-03-16T12:26:37;18.88;;;5.43;;
58338;SDS011;68636;52.704;6.536;2023-03-16T12:29:11;15.80;;;5.68;;
58338;SDS011;68636;52.704;6.536;2023-03-16T12:36:49;16.05;;;5.20;;
58338;SDS011;68636;52.704;6.536;2023-03-16T12:45:18;19.77;;;4.47;;
58338;SDS011;68636;52.704;6.536;2023-03-16T12:50:55;21.02;;;5.35;;
58338;SDS011;68636;52.704;6.536;2023-03-16T12:54:06;23.83;;;5.82;;
58338;SDS011;68636;52.704;6.536;2023-03-16T12:56:16;16.10;;;4.88;;
58338;SDS011;68636;52.704;6.536;2023-03-16T12:58:55;16.75;;;5.60;;
58338;SDS011;68636;52.704;6.536;2023-03-16T13:01:25;18.00;;;4.80;;
58338;SDS011;68636;52.704;6.536;2023-03-16T13:04:01;13.15;;;4.47;;
58338;SDS011;68636;52.704;6.536;2023-03-16T13:06:34;18.02;;;4.65;;
58338;SDS011;68636;52.704;6.536;2023-03-16T13:09:01;17.02;;;5.00;;
58338;SDS011;68636;52.704;6.536;2023-03-16T13:11:44;22.20;;;5.15;;
58338;SDS011;68636;52.704;6.536;2023-03-16T13:17:03;17.92;;;5.22;;
58338;SDS011;68636;52.704;6.536;2023-03-16T13:19:30;16.13;;;5.10;;
58338;SDS011;68636;52.704;6.536;2023-03-16T13:22:03;17.00;;;5.57;;
58338;SDS011;68636;52.704;6.536;2023-03-16T13:24:48;14.27;;;4.05;;
58338;SDS011;68636;52.704;6.536;2023-03-16T13:27:27;12.02;;;4.55;;
58338;SDS011;68636;52.704;6.536;2023-03-16T13:29:59;15.27;;;5.15;;
58338;SDS011;68636;52.704;6.536;2023-03-16T13:32:29;17.90;;;6.20;;
58338;SDS011;68636;52.704;6.536;2023-03-16T13:34:57;17.80;;;4.63;;
58338;SDS011;68636;52.704;6.536;2023-03-16T13:37:26;7.60;;;2.92;;
58338;SDS011;68636;52.704;6.536;2023-03-16T13:39:57;15.07;;;4.40;;
58338;SDS011;68636;52.704;6.536;2023-03-16T13:42:25;16.20;;;4.65;;
58338;SDS011;68636;52.704;6.536;2023-03-16T13:44:55;16.10;;;4.85;;
58338;SDS011;68636;52.704;6.536;2023-03-16T13:47:23;18.60;;;5.15;;
58338;SDS011;68636;52.704;6.536;2023-03-16T13:49:54;13.02;;;4.32;;
58338;SDS011;68636;52.704;6.536;2023-03-16T13:52:29;17.45;;;4.95;;
58338;SDS011;68636;52.704;6.536;2023-03-16T13:54:57;13.25;;;4.93;;
58338;SDS011;68636;52.704;6.536;2023-03-16T13:57:29;15.52;;;4.00;;
58338;SDS011;68636;52.704;6.536;2023-03-16T14:00:05;15.40;;;4.60;;
58338;SDS011;68636;52.704;6.536;2023-03-16T14:02:35;17.05;;;4.50;;
58338;SDS011;68636;52.704;6.536;2023-03-16T14:05:09;17.55;;;5.68;;
58338;SDS011;68636;52.704;6.536;2023-03-16T14:07:36;17.10;;;4.50;;
58338;SDS011;68636;52.704;6.536;2023-03-16T14:10:03;18.10;;;5.82;;
58338;SDS011;68636;52.704;6.536;2023-03-16T14:12:30;14.02;;;4.68;;
58338;SDS011;68636;52.704;6.536;2023-03-16T14:14:56;15.07;;;4.25;;
58338;SDS011;68636;52.704;6.536;2023-03-16T14:17:21;17.10;;;5.22;;
58338;SDS011;68636;52.704;6.536;2023-03-16T14:20:08;15.30;;;4.75;;
58338;SDS011;68636;52.704;6.536;2023-03-16T14:22:51;16.50;;;5.20;;
58338;SDS011;68636;52.704;6.536;2023-03-16T14:25:19;17.17;;;5.13;;
58338;SDS011;68636;52.704;6.536;2023-03-16T14:27:56;16.98;;;5.38;;
58338;SDS011;68636;52.704;6.536;2023-03-16T14:30:24;15.43;;;4.65;;
58338;SDS011;68636;52.704;6.536;2023-03-16T14:32:59;20.60;;;5.75;;
58338;SDS011;68636;52.704;6.536;2023-03-16T14:35:27;20.50;;;5.57;;
58338;SDS011;68636;52.704;6.536;2023-03-16T14:37:55;17.23;;;4.80;;
58338;SDS011;68636;52.704;6.536;2023-03-16T14:40:26;16.80;;;4.83;;
58338;SDS011;68636;52.704;6.536;2023-03-16T14:42:55;14.27;;;4.45;;
58338;SDS011;68636;52.704;6.536;2023-03-16T14:45:28;14.80;;;4.95;;
58338;SDS011;68636;52.704;6.536;2023-03-16T14:48:05;16.60;;;5.32;;
58338;SDS011;68636;52.704;6.536;2023-03-16T14:50:41;15.48;;;5.18;;
58338;SDS011;68636;52.704;6.536;2023-03-16T14:55:34;17.77;;;4.53;;
58338;SDS011;68636;52.704;6.536;2023-03-16T14:58:00;18.70;;;5.70;;
58338;SDS011;68636;52.704;6.536;2023-03-16T15:00:27;13.25;;;4.80;;
58338;SDS011;68636;52.704;6.536;2023-03-16T15:02:57;13.40;;;4.90;;
58338;SDS011;68636;52.704;6.536;2023-03-16T15:05:29;15.15;;;4.13;;
58338;SDS011;68636;52.704;6.536;2023-03-16T15:07:58;15.02;;;4.88;;
58338;SDS011;68636;52.704;6.536;2023-03-16T15:10:25;15.02;;;5.50;;
58338;SDS011;68636;52.704;6.536;2023-03-16T15:12:53;14.88;;;5.05;;
58338;SDS011;68636;52.704;6.536;2023-03-16T15:15:28;13.40;;;4.78;;
58338;SDS011;68636;52.704;6.536;2023-03-16T15:17:55;15.13;;;5.85;;
58338;SDS011;68636;52.704;6.536;2023-03-16T15:20:21;18.23;;;5.68;;
58338;SDS011;68636;52.704;6.536;2023-03-16T15:22:53;17.40;;;4.82;;
58338;SDS011;68636;52.704;6.536;2023-03-16T15:28:18;12.52;;;4.53;;
58338;SDS011;68636;52.704;6.536;2023-03-16T15:30:46;16.40;;;5.18;;
58338;SDS011;68636;52.704;6.536;2023-03-16T15:33:14;16.58;;;4.55;;
58338;SDS011;68636;52.704;6.536;2023-03-16T15:35:41;17.40;;;4.85;;
58338;SDS011;68636;52.704;6.536;2023-03-16T15:38:12;12.55;;;4.75;;
58338;SDS011;68636;52.704;6.536;2023-03-16T15:40:46;13.45;;;4.65;;
58338;SDS011;68636;52.704;6.536;2023-03-16T15:43:16;15.82;;;5.03;;
58338;SDS011;68636;52.704;6.536;2023-03-16T15:45:43;16.90;;;4.47;;
58338;SDS011;68636;52.704;6.536;2023-03-16T15:48:11;12.82;;;4.10;;
58338;SDS011;68636;52.704;6.536;2023-03-16T15:50:37;10.45;;;3.40;;
58338;SDS011;68636;52.704;6.536;2023-03-16T15:53:11;14.68;;;4.30;;
58338;SDS011;68636;52.704;6.536;2023-03-16T15:55:42;11.50;;;4.53;;
58338;SDS011;68636;52.704;6.536;2023-03-16T15:58:20;17.52;;;4.15;;
58338;SDS011;68636;52.704;6.536;2023-03-16T16:00:49;14.00;;;3.95;;
58338;SDS011;68636;52.704;6.536;2023-03-16T16:03:19;10.02;;;4.10;;
58338;SDS011;68636;52.704;6.536;2023-03-16T16:05:46;11.65;;;4.05;;
58338;SDS011;68636;52.704;6.536;2023-03-16T16:08:12;12.77;;;3.80;;
58338;SDS011;68636;52.704;6.536;2023-03-16T16:10:39;8.38;;;3.45;;
58338;SDS011;68636;52.704;6.536;2023-03-16T16:13:13;12.90;;;4.35;;
58338;SDS011;68636;52.704;6.536;2023-03-16T16:15:44;8.60;;;3.20;;
58338;SDS011;68636;52.704;6.536;2023-03-16T16:18:32;12.50;;;4.35;;
58338;SDS011;68636;52.704;6.536;2023-03-16T16:21:03;10.40;;;3.75;;
58338;SDS011;68636;52.704;6.536;2023-03-16T16:23:30;13.40;;;4.00;;
58338;SDS011;68636;52.704;6.536;2023-03-16T16:25:58;11.82;;;3.58;;
58338;SDS011;68636;52.704;6.536;2023-03-16T16:28:31;12.30;;;3.47;;